createdAt,value
2018-11-25T00:00:22.809Z,3.90
2018-11-25T00:02:51.190Z,3.80
2018-11-25T00:05:19.585Z,3.80
2018-11-25T00:07:47.969Z,3.80
2018-11-25T00:10:16.468Z,3.80
2018-11-25T00:12:45.956Z,3.80
2018-11-25T00:15:15.154Z,3.80
2018-11-25T00:17:43.525Z,3.80
2018-11-25T00:20:12.855Z,3.80
2018-11-25T00:22:41.532Z,3.80
2018-11-25T00:25:11.045Z,3.80
2018-11-25T00:27:40.748Z,3.80
2018-11-25T00:30:14.731Z,3.70
2018-11-25T00:32:43.141Z,3.70
2018-11-25T00:35:15.358Z,3.70
2018-11-25T00:37:48.665Z,3.70
2018-11-25T00:40:13.982Z,3.70
2018-11-25T00:42:42.580Z,3.70
2018-11-25T00:45:13.151Z,3.70
2018-11-25T00:47:41.552Z,3.70
2018-11-25T00:50:13.714Z,3.70
2018-11-25T00:52:42.059Z,3.70
2018-11-25T00:55:11.584Z,3.70
2018-11-25T00:57:39.905Z,3.70
2018-11-25T01:00:11.265Z,3.70
2018-11-25T01:02:39.618Z,3.60
2018-11-25T01:05:08.699Z,3.60
2018-11-25T01:07:37.013Z,3.60
2018-11-25T01:10:07.358Z,3.60
2018-11-25T01:12:35.700Z,3.60
2018-11-25T01:15:04.565Z,3.60
2018-11-25T01:17:32.909Z,3.60
2018-11-25T01:20:01.254Z,3.60
2018-11-25T01:22:29.598Z,3.50
2018-11-25T01:24:57.956Z,3.50
2018-11-25T01:27:26.326Z,3.50
2018-11-25T01:29:54.693Z,3.50
2018-11-25T01:32:23.013Z,3.50
2018-11-25T01:34:51.378Z,3.40
2018-11-25T01:37:19.702Z,3.40
2018-11-25T01:39:48.053Z,3.30
2018-11-25T01:42:16.381Z,3.20
2018-11-25T01:44:44.811Z,3.20
2018-11-25T01:47:13.144Z,3.10
2018-11-25T01:49:41.485Z,3.10
2018-11-25T01:52:09.809Z,3.00
2018-11-25T01:54:38.156Z,3.00
2018-11-25T01:57:06.497Z,3.00
2018-11-25T01:59:34.838Z,2.90
2018-11-25T02:02:03.148Z,2.90
2018-11-25T02:04:31.482Z,2.80
2018-11-25T02:06:59.810Z,2.80
2018-11-25T02:09:28.154Z,2.70
2018-11-25T02:11:56.477Z,2.70
2018-11-25T02:14:24.855Z,2.60
2018-11-25T02:16:53.240Z,2.50
2018-11-25T02:19:21.596Z,2.50
2018-11-25T02:21:49.908Z,2.40
2018-11-25T02:24:18.265Z,2.40
2018-11-25T02:26:46.580Z,2.30
2018-11-25T02:29:14.964Z,2.30
2018-11-25T02:31:43.322Z,2.20
2018-11-25T02:34:11.670Z,2.20
2018-11-25T02:36:40.025Z,2.20
2018-11-25T02:39:09.124Z,2.10
2018-11-25T02:41:37.441Z,2.10
2018-11-25T02:44:05.845Z,2.00
2018-11-25T02:46:34.161Z,2.00
2018-11-25T02:49:02.511Z,2.00
2018-11-25T02:51:30.828Z,1.90
2018-11-25T02:53:59.195Z,1.90
2018-11-25T02:56:27.505Z,1.90
2018-11-25T02:58:55.852Z,1.80
2018-11-25T03:01:24.177Z,1.80
2018-11-25T03:03:52.521Z,1.70
2018-11-25T03:06:20.837Z,1.70
2018-11-25T03:08:49.181Z,1.70
2018-11-25T03:11:17.492Z,1.70
2018-11-25T03:13:45.839Z,1.60
2018-11-25T03:16:14.153Z,1.50
2018-11-25T03:18:42.493Z,1.50
2018-11-25T03:21:10.827Z,1.50
2018-11-25T03:23:39.174Z,1.50
2018-11-25T03:26:07.490Z,1.40
2018-11-25T03:28:35.841Z,1.40
2018-11-25T03:31:04.308Z,1.40
2018-11-25T03:33:32.646Z,1.40
2018-11-25T03:36:01.010Z,1.30
2018-11-25T03:38:29.325Z,1.30
2018-11-25T03:40:57.681Z,1.30
2018-11-25T03:43:26.002Z,1.30
2018-11-25T03:45:54.345Z,1.20
2018-11-25T03:48:22.661Z,1.20
2018-11-25T03:50:51.017Z,1.20
2018-11-25T03:53:19.327Z,1.20
2018-11-25T03:55:47.681Z,1.10
2018-11-25T03:58:15.984Z,1.10
2018-11-25T04:00:44.338Z,1.10
2018-11-25T04:03:12.654Z,1.10
2018-11-25T04:05:41.001Z,1.00
2018-11-25T04:08:09.337Z,1.00
2018-11-25T04:10:37.712Z,1.00
2018-11-25T04:13:06.485Z,1.00
2018-11-25T04:15:34.902Z,0.90
2018-11-25T04:18:03.249Z,0.90
2018-11-25T04:20:31.605Z,0.90
2018-11-25T04:22:59.925Z,0.80
2018-11-25T04:25:28.273Z,0.80
2018-11-25T04:27:56.585Z,0.70
2018-11-25T04:30:24.941Z,0.60
2018-11-25T04:32:53.257Z,0.60
2018-11-25T04:35:21.616Z,0.60
2018-11-25T04:37:49.933Z,0.50
2018-11-25T04:40:18.764Z,0.50
2018-11-25T04:42:47.109Z,0.50
2018-11-25T04:45:16.298Z,0.50
2018-11-25T04:47:45.229Z,0.40
2018-11-25T04:50:15.439Z,0.40
2018-11-25T04:52:43.763Z,0.40
2018-11-25T04:55:12.114Z,0.40
2018-11-25T04:57:40.487Z,0.30
2018-11-25T05:00:11.245Z,0.30
2018-11-25T05:02:40.311Z,0.30
2018-11-25T05:05:10.725Z,0.30
2018-11-25T05:07:39.104Z,0.20
2018-11-25T05:10:11.296Z,0.20
2018-11-25T05:12:39.655Z,0.10
2018-11-25T05:15:09.993Z,0.00
2018-11-25T05:17:38.338Z,0.00
2018-11-25T05:20:08.480Z,-0.10
2018-11-25T05:22:36.825Z,-0.10
2018-11-25T05:25:06.049Z,-0.20
2018-11-25T05:27:34.409Z,-0.30
2018-11-25T05:30:02.817Z,-0.30
2018-11-25T05:32:31.185Z,-0.30
2018-11-25T05:34:59.513Z,-0.40
2018-11-25T05:37:27.852Z,-0.40
2018-11-25T05:39:56.194Z,-0.40
2018-11-25T05:42:24.553Z,-0.40
2018-11-25T05:44:52.893Z,-0.40
2018-11-25T05:47:21.269Z,-0.40
2018-11-25T05:49:49.601Z,-0.40
2018-11-25T05:52:17.972Z,-0.40
2018-11-25T05:54:46.345Z,-0.40
2018-11-25T05:57:14.706Z,-0.30
2018-11-25T05:59:43.040Z,-0.30
2018-11-25T06:02:11.410Z,-0.30
2018-11-25T06:04:39.738Z,-0.30
2018-11-25T06:07:08.130Z,-0.30
2018-11-25T06:09:36.452Z,-0.30
2018-11-25T06:12:04.805Z,-0.30
2018-11-25T06:14:33.146Z,-0.30
2018-11-25T06:17:01.510Z,-0.30
2018-11-25T06:19:29.836Z,-0.30
2018-11-25T06:21:58.193Z,-0.30
2018-11-25T06:24:26.541Z,-0.40
2018-11-25T06:26:54.901Z,-0.40
2018-11-25T06:29:23.218Z,-0.40
2018-11-25T06:31:51.560Z,-0.40
2018-11-25T06:34:19.864Z,-0.40
2018-11-25T06:36:48.221Z,-0.40
2018-11-25T06:39:16.533Z,-0.40
2018-11-25T06:41:45.750Z,-0.50
2018-11-25T06:44:14.061Z,-0.50
2018-11-25T06:46:42.418Z,-0.50
2018-11-25T06:49:10.737Z,-0.50
2018-11-25T06:51:39.130Z,-0.60
2018-11-25T06:54:07.461Z,-0.60
2018-11-25T06:56:36.148Z,-0.60
2018-11-25T06:59:04.792Z,-0.60
2018-11-25T07:01:33.101Z,-0.50
2018-11-25T07:04:01.546Z,-0.50
2018-11-25T07:06:29.865Z,-0.50
2018-11-25T07:08:58.212Z,-0.60
2018-11-25T07:11:26.536Z,-0.60
2018-11-25T07:13:54.898Z,-0.60
2018-11-25T07:16:23.212Z,-0.60
2018-11-25T07:18:51.576Z,-0.60
2018-11-25T07:21:19.898Z,-0.60
2018-11-25T07:23:48.263Z,-0.60
2018-11-25T07:26:16.604Z,-0.70
2018-11-25T07:28:45.045Z,-0.70
2018-11-25T07:31:13.353Z,-0.70
2018-11-25T07:33:41.730Z,-0.70
2018-11-25T07:36:10.053Z,-0.70
2018-11-25T07:38:38.421Z,-0.70
2018-11-25T07:41:06.743Z,-0.70
2018-11-25T07:43:35.100Z,-0.70
2018-11-25T07:46:03.465Z,-0.70
2018-11-25T07:48:31.825Z,-0.70
2018-11-25T07:51:00.152Z,-0.70
2018-11-25T07:53:28.507Z,-0.60
2018-11-25T07:55:56.821Z,-0.60
2018-11-25T07:58:25.178Z,-0.60
2018-11-25T08:00:53.570Z,-0.60
2018-11-25T08:03:21.929Z,-0.50
2018-11-25T08:05:50.305Z,-0.50
2018-11-25T08:08:18.665Z,-0.40
2018-11-25T08:10:46.976Z,-0.30
2018-11-25T08:13:15.320Z,-0.20
2018-11-25T08:15:43.649Z,-0.20
2018-11-25T08:18:12.021Z,-0.10
2018-11-25T08:20:40.344Z,-0.10
2018-11-25T08:23:08.717Z,0.00
2018-11-25T08:25:37.092Z,0.10
2018-11-25T08:28:05.573Z,0.20
2018-11-25T08:30:33.896Z,0.30
2018-11-25T08:33:02.437Z,0.30
2018-11-25T08:35:30.756Z,0.40
2018-11-25T08:37:59.126Z,0.50
2018-11-25T08:40:27.441Z,0.50
2018-11-25T08:42:55.828Z,0.60
2018-11-25T08:45:24.141Z,0.60
2018-11-25T08:47:52.538Z,0.70
2018-11-25T08:50:20.936Z,0.70
2018-11-25T08:52:51.218Z,0.80
2018-11-25T08:55:20.658Z,0.80
2018-11-25T08:57:48.978Z,0.90
2018-11-25T09:00:19.373Z,1.00
2018-11-25T09:02:48.196Z,1.00
2018-11-25T09:05:23.182Z,1.10
2018-11-25T09:07:51.540Z,1.20
2018-11-25T09:10:20.888Z,1.30
2018-11-25T09:12:56.715Z,1.40
2018-11-25T09:15:26.344Z,1.40
2018-11-25T09:17:55.566Z,1.50
2018-11-25T09:20:29.208Z,1.50
2018-11-25T09:23:00.365Z,1.70
2018-11-25T09:25:29.857Z,1.70
2018-11-25T09:27:59.254Z,1.80
2018-11-25T09:30:28.743Z,1.90
2018-11-25T09:32:57.065Z,2.00
2018-11-25T09:35:25.738Z,2.10
2018-11-25T09:37:54.049Z,2.20
2018-11-25T09:40:24.617Z,2.40
2018-11-25T09:42:52.972Z,2.50
2018-11-25T09:45:21.451Z,2.70
2018-11-25T09:47:50.168Z,2.80
2018-11-25T09:50:21.038Z,2.80
2018-11-25T09:52:49.453Z,2.90
2018-11-25T09:55:19.808Z,3.00
2018-11-25T09:57:51.296Z,3.10
2018-11-25T10:00:22.947Z,3.20
2018-11-25T10:02:51.264Z,3.30
2018-11-25T10:05:19.658Z,3.40
2018-11-25T10:07:47.993Z,3.50
2018-11-25T10:10:18.373Z,3.90
2018-11-25T10:12:46.787Z,4.20
2018-11-25T10:15:16.229Z,4.40
2018-11-25T10:17:44.554Z,4.40
2018-11-25T10:20:15.365Z,4.40
2018-11-25T10:22:44.768Z,4.40
2018-11-25T10:25:14.050Z,4.40
2018-11-25T10:27:42.512Z,4.40
2018-11-25T10:30:13.117Z,4.50
2018-11-25T10:32:42.375Z,4.60
2018-11-25T10:35:10.693Z,4.60
2018-11-25T10:37:39.061Z,4.70
2018-11-25T10:40:10.937Z,4.70
2018-11-25T10:42:39.305Z,4.80
2018-11-25T10:45:10.345Z,4.90
2018-11-25T10:47:38.654Z,4.90
2018-11-25T10:50:09.159Z,5.00
2018-11-25T10:52:37.473Z,5.00
2018-11-25T10:55:07.525Z,5.10
2018-11-25T10:57:35.841Z,5.20
2018-11-25T11:00:11.002Z,5.30
2018-11-25T11:02:44.470Z,5.40
2018-11-25T11:05:17.074Z,5.40
2018-11-25T11:07:45.681Z,5.50
2018-11-25T11:10:14.049Z,5.60
2018-11-25T11:12:42.369Z,5.70
2018-11-25T11:15:11.665Z,5.70
2018-11-25T11:17:40.070Z,5.80
2018-11-25T11:20:10.202Z,5.80
2018-11-25T11:22:38.620Z,5.90
2018-11-25T11:25:08.494Z,5.90
2018-11-25T11:27:36.932Z,6.00
2018-11-25T11:30:08.017Z,6.10
2018-11-25T11:32:36.458Z,6.10
2018-11-25T11:35:06.038Z,6.20
2018-11-25T11:37:34.370Z,6.30
2018-11-25T11:40:02.744Z,6.30
2018-11-25T11:42:31.075Z,6.40
2018-11-25T11:44:59.589Z,6.50
2018-11-25T11:47:27.905Z,6.70
2018-11-25T11:49:56.345Z,6.80
2018-11-25T11:52:24.665Z,6.80
2018-11-25T11:54:53.050Z,6.90
2018-11-25T11:57:21.373Z,6.90
2018-11-25T11:59:49.788Z,7.00
2018-11-25T12:02:18.120Z,7.00
2018-11-25T12:04:46.463Z,7.00
2018-11-25T12:07:14.857Z,7.10
2018-11-25T12:09:43.196Z,7.10
2018-11-25T12:12:11.582Z,7.20
2018-11-25T12:14:39.954Z,7.20
2018-11-25T12:17:08.841Z,7.30
2018-11-25T12:19:37.222Z,7.40
2018-11-25T12:22:05.632Z,7.40
2018-11-25T12:24:33.957Z,7.40
2018-11-25T12:27:02.351Z,7.50
2018-11-25T12:29:30.681Z,7.50
2018-11-25T12:31:59.131Z,7.60
2018-11-25T12:34:27.441Z,7.60
2018-11-25T12:36:55.829Z,7.70
2018-11-25T12:39:28.318Z,7.70
2018-11-25T12:41:52.580Z,7.70
2018-11-25T12:44:20.918Z,7.80
2018-11-25T12:46:49.305Z,7.90
2018-11-25T12:49:17.634Z,7.90
2018-11-25T12:51:46.017Z,7.90
2018-11-25T12:54:14.345Z,8.00
2018-11-25T12:56:42.733Z,8.00
2018-11-25T12:59:11.065Z,8.00
2018-11-25T13:01:39.446Z,8.00
2018-11-25T13:04:07.762Z,8.00
2018-11-25T13:06:36.161Z,8.10
2018-11-25T13:09:05.412Z,8.00
2018-11-25T13:11:33.809Z,8.10
2018-11-25T13:14:02.197Z,8.10
2018-11-25T13:16:30.645Z,8.10
2018-11-25T13:18:59.037Z,8.10
2018-11-25T13:21:27.436Z,8.10
2018-11-25T13:23:55.762Z,8.10
2018-11-25T13:26:24.184Z,8.10
2018-11-25T13:28:52.678Z,8.20
2018-11-25T13:31:21.070Z,8.30
2018-11-25T13:33:49.504Z,8.40
2018-11-25T13:36:17.897Z,8.50
2018-11-25T13:38:46.257Z,8.60
2018-11-25T13:41:14.697Z,8.50
2018-11-25T13:43:43.026Z,8.50
2018-11-25T13:46:11.404Z,8.40
2018-11-25T13:48:39.754Z,8.30
2018-11-25T13:51:08.896Z,8.30
2018-11-25T13:53:37.258Z,8.30
2018-11-25T13:56:06.298Z,8.20
2018-11-25T13:58:34.612Z,8.20
2018-11-25T14:01:05.530Z,8.20
2018-11-25T14:03:39.266Z,8.20
2018-11-25T14:06:10.797Z,8.20
2018-11-25T14:08:39.282Z,8.20
2018-11-25T14:11:11.011Z,8.20
2018-11-25T14:13:39.369Z,8.10
2018-11-25T14:16:09.373Z,8.10
2018-11-25T14:18:37.769Z,8.10
2018-11-25T14:21:06.577Z,8.10
2018-11-25T14:23:35.013Z,8.10
2018-11-25T14:26:08.809Z,8.10
2018-11-25T14:28:37.212Z,8.20
2018-11-25T14:31:05.927Z,8.20
2018-11-25T14:33:34.359Z,8.10
2018-11-25T14:36:02.685Z,8.20
2018-11-25T14:38:31.091Z,8.20
2018-11-25T14:40:59.495Z,8.10
2018-11-25T14:43:27.885Z,8.10
2018-11-25T14:45:56.214Z,8.10
2018-11-25T14:48:24.659Z,8.10
2018-11-25T14:50:53.082Z,8.10
2018-11-25T14:53:21.813Z,8.10
2018-11-25T14:55:50.190Z,8.00
2018-11-25T14:58:18.627Z,8.00
2018-11-25T15:00:46.938Z,8.00
2018-11-25T15:03:15.353Z,7.90
2018-11-25T15:05:46.157Z,7.90
2018-11-25T15:08:18.094Z,7.80
2018-11-25T15:10:46.455Z,7.70
2018-11-25T15:13:14.886Z,7.60
2018-11-25T15:15:43.257Z,7.40
2018-11-25T15:18:11.659Z,7.20
2018-11-25T15:20:40.033Z,7.00
2018-11-25T15:23:12.761Z,6.70
2018-11-25T15:25:46.661Z,6.50
2018-11-25T15:28:15.113Z,6.30
2018-11-25T15:30:43.441Z,6.20
2018-11-25T15:33:11.830Z,6.00
2018-11-25T15:35:40.163Z,5.80
2018-11-25T15:38:08.831Z,5.70
2018-11-25T15:40:37.771Z,5.50
2018-11-25T15:43:07.322Z,5.30
2018-11-25T15:45:35.653Z,5.20
2018-11-25T15:48:20.725Z,5.10
2018-11-25T15:50:49.175Z,5.00
2018-11-25T15:53:18.140Z,4.90
2018-11-25T15:55:47.473Z,4.80
2018-11-25T15:58:15.872Z,4.70
2018-11-25T16:00:44.209Z,4.60
2018-11-25T16:03:13.577Z,4.50
2018-11-25T16:05:44.782Z,4.40
2018-11-25T16:08:13.209Z,4.20
2018-11-25T16:10:41.536Z,4.10
2018-11-25T16:13:09.955Z,4.00
2018-11-25T16:15:38.349Z,4.00
2018-11-25T16:18:07.319Z,4.00
2018-11-25T16:20:35.757Z,4.00
2018-11-25T16:23:06.593Z,3.90
2018-11-25T16:25:38.673Z,3.90
2018-11-25T16:28:26.932Z,3.80
2018-11-25T16:30:55.322Z,3.70
2018-11-25T16:33:23.769Z,3.60
2018-11-25T16:35:52.110Z,3.50
2018-11-25T16:38:20.507Z,3.40
2018-11-25T16:40:48.842Z,3.40
2018-11-25T16:43:17.261Z,3.30
2018-11-25T16:45:45.577Z,3.30
2018-11-25T16:48:14.231Z,3.20
2018-11-25T16:50:42.571Z,3.20
2018-11-25T16:53:11.361Z,3.20
2018-11-25T16:55:39.685Z,3.20
2018-11-25T16:58:08.045Z,3.20
2018-11-25T17:00:36.466Z,3.10
2018-11-25T17:03:04.944Z,3.10
2018-11-25T17:05:35.502Z,3.10
2018-11-25T17:08:10.210Z,3.10
2018-11-25T17:10:38.625Z,3.10
2018-11-25T17:13:07.317Z,3.10
2018-11-25T17:15:35.757Z,3.10
2018-11-25T17:18:04.105Z,3.10
2018-11-25T17:20:32.711Z,3.20
2018-11-25T17:23:01.034Z,3.20
2018-11-25T17:25:29.504Z,3.20
2018-11-25T17:27:57.826Z,3.30
2018-11-25T17:30:26.234Z,3.30
2018-11-25T17:32:54.676Z,3.30
2018-11-25T17:35:25.908Z,3.40
2018-11-25T17:37:54.245Z,3.40
2018-11-25T17:40:22.972Z,3.40
2018-11-25T17:42:51.541Z,3.50
2018-11-25T17:45:20.027Z,3.50
2018-11-25T17:47:48.476Z,3.50
2018-11-25T17:50:18.171Z,3.50
2018-11-25T17:52:47.205Z,3.60
2018-11-25T17:55:16.014Z,3.60
2018-11-25T17:57:44.491Z,3.60
2018-11-25T18:00:52.898Z,3.60
2018-11-25T18:03:23.557Z,3.60
2018-11-25T18:05:51.893Z,3.60
2018-11-25T18:08:20.401Z,3.70
2018-11-25T18:10:49.288Z,3.70
2018-11-25T18:13:18.972Z,3.70
2018-11-25T18:15:47.442Z,3.70
2018-11-25T18:18:19.165Z,3.70
2018-11-25T18:20:54.471Z,3.70
2018-11-25T18:23:23.243Z,3.70
2018-11-25T18:25:51.685Z,3.80
2018-11-25T18:28:20.260Z,3.80
2018-11-25T18:30:48.584Z,3.80
2018-11-25T18:33:17.276Z,3.80
2018-11-25T18:35:45.737Z,3.80
2018-11-25T18:38:14.188Z,3.80
2018-11-25T18:40:42.526Z,3.80
2018-11-25T18:43:11.115Z,3.80
2018-11-25T18:45:39.453Z,3.80
2018-11-25T18:48:09.661Z,3.90
2018-11-25T18:50:37.964Z,3.90
2018-11-25T18:53:07.852Z,3.90
2018-11-25T18:55:35.225Z,3.90
2018-11-25T18:58:04.680Z,3.90
2018-11-25T19:00:38.852Z,3.90
2018-11-25T19:03:07.314Z,3.90
2018-11-25T19:05:35.752Z,3.90
2018-11-25T19:08:04.328Z,3.90
2018-11-25T19:10:32.661Z,3.90
2018-11-25T19:13:01.071Z,3.90
2018-11-25T19:15:29.465Z,3.90
2018-11-25T19:17:57.911Z,3.90
2018-11-25T19:20:27.382Z,3.90
2018-11-25T19:22:56.652Z,3.80
2018-11-25T19:25:24.985Z,3.80
2018-11-25T19:27:53.989Z,3.80
2018-11-25T19:30:26.620Z,3.90
2018-11-25T19:32:50.797Z,3.80
2018-11-25T19:35:21.401Z,3.70
2018-11-25T19:37:50.658Z,3.90
2018-11-25T19:40:20.608Z,3.80
2018-11-25T19:42:49.073Z,3.80
2018-11-25T19:45:19.852Z,3.80
2018-11-25T19:47:48.268Z,3.80
2018-11-25T19:50:21.172Z,3.80
2018-11-25T19:52:49.617Z,3.80
2018-11-25T19:55:18.018Z,3.80
2018-11-25T19:57:46.353Z,3.80
2018-11-25T20:00:20.010Z,3.80
2018-11-25T20:02:49.340Z,3.80
2018-11-25T20:05:16.902Z,3.80
2018-11-25T20:07:45.436Z,3.80
2018-11-25T20:10:15.099Z,3.80
2018-11-25T20:12:45.059Z,3.80
2018-11-25T20:15:14.512Z,3.80
2018-11-25T20:17:42.941Z,3.80
2018-11-25T20:20:12.441Z,3.80
2018-11-25T20:22:40.772Z,3.80
2018-11-25T20:25:11.213Z,3.80
2018-11-25T20:27:41.020Z,3.80
2018-11-25T20:30:10.806Z,3.80
2018-11-25T20:32:44.533Z,3.80
2018-11-25T20:35:12.961Z,3.80
2018-11-25T20:37:46.741Z,3.80
2018-11-25T20:40:16.160Z,3.80
2018-11-25T20:42:44.600Z,3.80
2018-11-25T20:45:19.398Z,3.80
2018-11-25T20:47:47.820Z,3.70
2018-11-25T20:50:16.161Z,3.80
2018-11-25T20:52:49.989Z,3.70
2018-11-25T20:55:18.316Z,3.70
2018-11-25T20:57:46.734Z,3.80
2018-11-25T21:00:18.313Z,3.70
2018-11-25T21:02:46.639Z,3.80
2018-11-25T21:05:15.501Z,3.80
2018-11-25T21:07:43.830Z,3.80
2018-11-25T21:10:14.557Z,3.80
2018-11-25T21:12:44.145Z,3.80
2018-11-25T21:15:12.557Z,3.80
2018-11-25T21:17:40.989Z,3.80
2018-11-25T21:20:15.421Z,3.80
2018-11-25T21:22:43.840Z,3.80
2018-11-25T21:25:16.236Z,3.80
2018-11-25T21:27:44.556Z,3.80
2018-11-25T21:30:14.272Z,3.80
2018-11-25T21:32:42.809Z,3.80
2018-11-25T21:35:12.134Z,3.80
2018-11-25T21:37:40.453Z,3.80
2018-11-25T21:40:13.207Z,3.80
2018-11-25T21:42:41.529Z,3.80
2018-11-25T21:45:12.225Z,3.80
2018-11-25T21:47:40.568Z,3.80
2018-11-25T21:50:14.909Z,3.80
2018-11-25T21:52:43.242Z,3.80
2018-11-25T21:55:12.721Z,3.80
2018-11-25T21:57:41.118Z,3.80
2018-11-25T22:00:10.987Z,3.80
2018-11-25T22:02:39.292Z,3.80
2018-11-25T22:05:08.655Z,3.80
2018-11-25T22:07:36.985Z,3.80
2018-11-25T22:10:07.721Z,3.80
2018-11-25T22:12:36.120Z,3.80
2018-11-25T22:15:04.653Z,3.80
2018-11-25T22:17:32.953Z,3.80
2018-11-25T22:20:01.330Z,3.80
2018-11-25T22:22:29.641Z,3.80
2018-11-25T22:24:58.016Z,3.80
2018-11-25T22:27:26.336Z,3.80
2018-11-25T22:29:54.692Z,3.80
2018-11-25T22:32:23.001Z,3.90
2018-11-25T22:34:51.364Z,3.80
2018-11-25T22:37:19.692Z,3.80
2018-11-25T22:39:48.065Z,3.80
2018-11-25T22:42:16.376Z,3.80
2018-11-25T22:44:44.712Z,3.80
2018-11-25T22:47:13.060Z,3.80
2018-11-25T22:49:41.453Z,3.80
2018-11-25T22:52:09.753Z,3.80
2018-11-25T22:54:38.112Z,3.80
2018-11-25T22:57:06.445Z,3.80
2018-11-25T22:59:34.796Z,3.80
2018-11-25T23:02:03.117Z,3.80
2018-11-25T23:04:42.775Z,3.80
2018-11-25T23:07:11.099Z,3.80
2018-11-25T23:09:39.440Z,3.80
2018-11-25T23:12:07.791Z,3.80
2018-11-25T23:14:36.101Z,3.80
2018-11-25T23:17:04.454Z,3.70
2018-11-25T23:19:32.765Z,3.70
2018-11-25T23:22:01.142Z,3.70
2018-11-25T23:24:29.461Z,3.70
2018-11-25T23:26:57.813Z,3.70
2018-11-25T23:29:26.120Z,3.60
2018-11-25T23:31:54.464Z,3.60
2018-11-25T23:34:22.792Z,3.60
2018-11-25T23:36:51.136Z,3.60
2018-11-25T23:39:19.457Z,3.50
2018-11-25T23:41:47.809Z,3.50
2018-11-25T23:44:16.124Z,3.50
2018-11-25T23:46:44.465Z,3.50
2018-11-25T23:49:12.782Z,3.50
2018-11-25T23:51:41.184Z,3.50
2018-11-25T23:54:09.498Z,3.40
2018-11-25T23:56:37.848Z,3.50
2018-11-25T23:59:06.260Z,3.50
